Time;durP1;ratioP1;P1;durP2;ratioP2;P2;SDS_P1;SDS_P2;PMS_P1;PMS_P2;Temp;Humidity;BMP_temperature;BMP_pressure;BME280_temperature;BME280_humidity;BME280_pressure;Samples;Min_cycle;Max_cycle;Signal;HPM_P1;HPM_P2
2021/12/25 00:01:22;;;;;;;17.10;15.40;;;;;;;5.19;56.87;94609.78;5074626;28;20193;-65
2021/12/25 00:03:50;;;;;;;18.30;16.27;;;;;;;5.16;56.81;94615.91;5075173;28;20594;-65
2021/12/25 00:06:17;;;;;;;17.33;15.52;;;;;;;5.12;57.11;94616.88;5074351;28;20189;-65
2021/12/25 00:08:45;;;;;;;17.38;15.52;;;;;;;5.09;57.37;94603.91;5075531;28;20181;-65
2021/12/25 00:11:13;;;;;;;15.38;13.85;;;;;;;5.04;57.36;94619.31;5074397;28;20204;-65
2021/12/25 00:13:41;;;;;;;15.45;14.00;;;;;;;5.06;57.73;94616.28;5073952;28;20637;-65
2021/12/25 00:16:08;;;;;;;15.35;13.85;;;;;;;5.05;57.44;94618.22;5074785;28;20239;-65
2021/12/25 00:18:35;;;;;;;16.10;14.50;;;;;;;5.03;57.19;94634.13;5074045;28;20197;-65
2021/12/25 00:21:02;;;;;;;16.45;14.85;;;;;;;4.87;57.91;94633.09;5074186;28;20219;-65
2021/12/25 00:23:29;;;;;;;16.40;14.75;;;;;;;4.81;58.22;94651.56;5074354;28;20189;-65
2021/12/25 00:26:01;;;;;;;17.23;15.63;;;;;;;4.56;59.05;94655.19;5074093;28;20240;-65
2021/12/25 00:28:49;;;;;;;15.68;14.27;;;;;;;4.55;59.31;94642.66;5074897;28;20181;-65
2021/12/25 00:31:30;;;;;;;14.70;13.35;;;;;;;4.58;58.88;94670.13;5075157;28;20246;-65
2021/12/25 00:33:59;;;;;;;14.57;13.18;;;;;;;4.65;59.02;94668.81;5074150;28;20185;-65
2021/12/25 00:36:26;;;;;;;15.65;14.05;;;;;;;4.64;58.46;94668.00;5074887;28;20297;-65
2021/12/25 00:38:54;;;;;;;15.70;14.20;;;;;;;4.62;58.73;94666.75;5074813;28;20598;-65
2021/12/25 00:41:23;;;;;;;14.38;13.00;;;;;;;4.64;58.72;94673.47;5074689;28;20643;-65
2021/12/25 00:43:51;;;;;;;15.25;13.75;;;;;;;4.64;58.60;94681.66;5074508;28;20224;-65
2021/12/25 00:46:18;;;;;;;14.55;13.05;;;;;;;4.65;58.47;94679.72;5074114;28;20196;-65
2021/12/25 00:48:45;;;;;;;14.90;13.50;;;;;;;4.63;58.61;94660.94;5075081;28;20193;-65
2021/12/25 00:51:12;;;;;;;14.80;13.27;;;;;;;4.63;59.00;94651.94;5074998;28;20181;-65
2021/12/25 00:53:39;;;;;;;13.98;12.65;;;;;;;4.59;58.69;94677.19;5074401;28;20220;-65
2021/12/25 00:56:05;;;;;;;13.18;11.98;;;;;;;4.54;59.24;94671.91;5074283;28;20221;-65
2021/12/25 00:58:34;;;;;;;13.55;12.18;;;;;;;4.54;59.08;94660.19;5075130;28;20272;-65
2021/12/25 01:01:00;;;;;;;13.85;12.52;;;;;;;4.56;58.70;94666.09;5074847;28;20196;-65
2021/12/25 01:03:27;;;;;;;13.00;11.70;;;;;;;4.56;59.04;94649.72;5074000;28;20197;-65
2021/12/25 01:05:54;;;;;;;13.95;12.50;;;;;;;4.53;59.06;94653.09;5074520;28;20502;-65
2021/12/25 01:08:21;;;;;;;13.35;12.05;;;;;;;4.53;59.09;94666.75;5075090;28;20186;-65
2021/12/25 01:10:48;;;;;;;13.20;12.00;;;;;;;4.46;59.23;94667.22;5074751;28;20185;-65
2021/12/25 01:13:22;;;;;;;13.50;12.15;;;;;;;4.43;59.12;94656.16;5074681;28;20190;-65
2021/12/25 01:16:00;;;;;;;15.20;13.68;;;;;;;4.44;59.39;94674.16;5074377;28;20590;-65
2021/12/25 01:24:17;;;;;;;13.30;12.07;;;;;;;4.30;59.53;94644.31;5065835;28;20212;-65
2021/12/25 01:26:59;;;;;;;12.65;11.45;;;;;;;4.35;59.78;94644.94;5077998;28;20236;-65
2021/12/25 01:29:36;;;;;;;12.50;11.30;;;;;;;4.39;59.50;94647.00;5078028;28;20655;-65
2021/12/25 01:35:20;;;;;;;13.25;11.93;;;;;;;4.25;60.22;94650.75;5069110;28;20209;-65
2021/12/25 01:37:59;;;;;;;12.93;11.60;;;;;;;4.16;60.21;94640.94;5077641;28;20578;-65
2021/12/25 01:40:46;;;;;;;13.37;12.17;;;;;;;4.17;60.91;94637.88;5077426;28;20201;-65
2021/12/25 01:48:45;;;;;;;12.65;11.40;;;;;;;4.16;60.77;94647.22;5076931;28;20197;-65
2021/12/25 01:51:12;;;;;;;12.90;11.65;;;;;;;4.16;60.36;94652.66;5077923;28;20204;-65
2021/12/25 01:53:39;;;;;;;13.13;11.77;;;;;;;4.14;60.25;94638.56;5076991;28;20185;-65
2021/12/25 01:56:06;;;;;;;11.90;10.70;;;;;;;4.17;60.23;94634.34;5077568;28;20649;-65
2021/12/25 01:58:34;;;;;;;12.13;10.82;;;;;;;4.15;60.34;94645.59;5077937;28;20510;-65
2021/12/25 02:01:03;;;;;;;11.85;10.75;;;;;;;4.16;60.60;94643.69;5076976;28;20203;-65
2021/12/25 02:03:31;;;;;;;11.57;10.38;;;;;;;4.15;60.75;94637.41;5078249;28;20203;-65
2021/12/25 02:06:00;;;;;;;11.30;10.23;;;;;;;4.20;60.45;94633.72;5077470;28;20193;-65
2021/12/25 02:08:28;;;;;;;12.27;11.10;;;;;;;4.19;61.20;94624.72;5077674;28;20594;-65
2021/12/25 02:10:55;;;;;;;13.63;12.30;;;;;;;4.15;60.94;94623.78;5076713;28;20197;-65
2021/12/25 02:13:22;;;;;;;15.57;14.05;;;;;;;4.10;60.45;94622.03;5077535;28;20208;-65
2021/12/25 02:15:51;;;;;;;11.48;10.38;;;;;;;4.06;60.59;94620.25;5077161;28;20515;-65
2021/12/25 02:18:24;;;;;;;10.60;9.60;;;;;;;4.17;60.69;94620.72;5076762;28;20197;-65
2021/12/25 02:21:00;;;;;;;11.32;10.13;;;;;;;4.21;61.19;94621.66;5077121;28;20601;-65
2021/12/25 02:23:27;;;;;;;11.63;10.38;;;;;;;4.21;60.81;94622.50;5076122;28;20200;-65
2021/12/25 02:25:55;;;;;;;10.82;9.82;;;;;;;4.28;61.17;94619.25;5076327;28;20232;-65
2021/12/25 02:28:22;;;;;;;11.73;10.60;;;;;;;4.30;60.91;94623.25;5076178;28;20525;-65
2021/12/25 02:30:51;;;;;;;11.40;10.30;;;;;;;4.23;61.27;94606.56;5077318;28;20177;-65
2021/12/25 02:33:18;;;;;;;9.93;9.03;;;;;;;4.27;61.24;94615.72;5077169;28;20197;-65
2021/12/25 02:35:46;;;;;;;9.90;8.90;;;;;;;4.30;61.16;94631.44;5075580;28;20212;-65
2021/12/25 02:38:15;;;;;;;9.85;8.85;;;;;;;4.36;61.00;94618.44;5076745;28;20216;-65
2021/12/25 02:40:42;;;;;;;10.15;9.25;;;;;;;4.44;60.68;94609.44;5076198;28;20208;-65
2021/12/25 02:43:09;;;;;;;9.65;8.65;;;;;;;4.46;60.60;94609.88;5076561;28;20514;-65
2021/12/25 02:45:36;;;;;;;10.05;9.05;;;;;;;4.51;60.84;94619.84;5076864;28;20208;-65
2021/12/25 02:48:10;;;;;;;10.30;9.30;;;;;;;4.56;60.84;94612.28;5077007;28;20598;-65
2021/12/25 02:50:39;;;;;;;10.82;9.82;;;;;;;4.56;60.37;94627.88;5076002;28;20279;-65
2021/12/25 02:53:08;;;;;;;9.98;9.07;;;;;;;4.58;60.40;94611.97;5075796;28;20628;-65
2021/12/25 02:55:37;;;;;;;10.40;9.50;;;;;;;4.65;60.71;94614.16;5075839;28;20229;-65
2021/12/25 02:58:04;;;;;;;11.45;10.40;;;;;;;4.67;60.47;94612.72;5076396;28;20641;-65
2021/12/25 03:00:40;;;;;;;11.68;10.27;;;;;;;4.70;60.12;94608.56;5075963;28;20200;-65
2021/12/25 03:03:08;;;;;;;10.75;9.75;;;;;;;4.80;59.93;94613.66;5075721;28;20201;-65
2021/12/25 03:05:35;;;;;;;12.30;10.05;;;;;;;4.85;59.82;94610.75;5075418;28;20725;-65
2021/12/25 03:08:02;;;;;;;11.40;10.40;;;;;;;4.85;59.80;94626.34;5076612;28;20191;-65
2021/12/25 03:10:31;;;;;;;12.68;11.57;;;;;;;4.73;60.10;94610.63;5075229;28;20189;-65
2021/12/25 03:13:17;;;;;;;15.10;13.60;;;;;;;4.63;60.37;94617.25;5075610;28;20204;-65
2021/12/25 03:15:46;;;;;;;14.00;12.70;;;;;;;4.64;60.41;94616.09;5075680;28;20201;-65
2021/12/25 03:18:13;;;;;;;15.30;13.88;;;;;;;4.65;60.46;94614.16;5076457;28;20224;-65
2021/12/25 03:20:44;;;;;;;13.77;12.48;;;;;;;4.66;60.59;94608.41;5075554;28;20201;-65
2021/12/25 03:23:12;;;;;;;14.90;13.50;;;;;;;4.71;60.52;94624.59;5076207;28;20182;-65
2021/12/25 03:25:39;;;;;;;16.80;15.13;;;;;;;4.65;60.50;94625.94;5075921;28;20248;-65
2021/12/25 03:28:07;;;;;;;16.00;14.40;;;;;;;4.64;60.38;94626.22;5076210;28;20189;-65
2021/12/25 03:30:37;;;;;;;14.80;13.30;;;;;;;4.67;60.50;94628.31;5075383;28;20585;-65
2021/12/25 03:33:06;;;;;;;13.35;12.15;;;;;;;4.71;60.42;94637.47;5076057;28;20204;-65
2021/12/25 03:35:34;;;;;;;12.40;11.20;;;;;;;4.70;60.24;94622.22;5075187;28;20197;-65
2021/12/25 03:38:01;;;;;;;11.55;10.45;;;;;;;4.66;60.07;94607.59;5075597;28;20213;-65
2021/12/25 03:40:28;;;;;;;10.82;9.82;;;;;;;4.73;60.18;94610.63;5074805;28;20197;-65
2021/12/25 03:42:55;;;;;;;10.13;9.10;;;;;;;4.80;59.95;94598.06;5075455;28;20533;-65
2021/12/25 03:45:24;;;;;;;9.65;8.70;;;;;;;4.87;59.76;94592.09;5074919;28;20201;-65
2021/12/25 03:48:03;;;;;;;9.77;8.88;;;;;;;4.92;59.85;94597.38;5074104;28;20192;-65
2021/12/25 03:53:25;;;;;;;11.68;10.48;;;;;;;4.91;59.74;94625.84;5074316;28;20193;-65
2021/12/25 03:58:36;;;;;;;11.75;10.65;;;;;;;4.95;59.62;94625.97;5075285;28;20223;-65
2021/12/25 04:01:24;;;;;;;10.32;9.32;;;;;;;4.93;59.81;94612.63;5074726;28;20193;-65
2021/12/25 04:04:04;;;;;;;11.07;10.07;;;;;;;4.89;59.97;94625.34;5074543;28;20200;-65
2021/12/25 04:06:31;;;;;;;14.52;13.13;;;;;;;4.83;60.22;94616.53;5075497;28;20276;-65
2021/12/25 04:08:59;;;;;;;15.13;13.60;;;;;;;4.80;59.83;94609.00;5074558;28;20193;-65
2021/12/25 04:11:28;;;;;;;15.05;13.60;;;;;;;4.76;59.84;94632.63;5074515;28;20270;-65
2021/12/25 04:13:56;;;;;;;8.80;8.00;;;;;;;4.72;60.43;94596.19;5075135;28;20180;-65
2021/12/25 04:16:26;;;;;;;11.13;10.02;;;;;;;5.04;59.63;94637.66;5075979;28;20199;-65
2021/12/25 04:18:52;;;;;;;10.13;9.13;;;;;;;5.06;59.12;94628.00;5074484;28;20712;-65
2021/12/25 04:21:19;;;;;;;10.70;9.20;;;;;;;5.05;59.23;94615.47;5075191;28;20181;-65
2021/12/25 04:23:46;;;;;;;9.27;8.37;;;;;;;5.03;59.54;94617.72;5075014;28;20203;-65
2021/12/25 04:26:14;;;;;;;8.93;8.20;;;;;;;5.05;59.74;94628.34;5074800;28;20268;-65
2021/12/25 04:28:46;;;;;;;9.25;8.43;;;;;;;5.03;59.61;94627.88;5073647;28;20193;-65
2021/12/25 04:31:30;;;;;;;8.68;7.88;;;;;;;5.01;59.64;94635.56;5073992;28;20295;-65
2021/12/25 04:47:57;;;;;;;9.95;9.05;;;;;;;4.91;60.19;94622.31;5074283;28;20225;-65
2021/12/25 05:01:49;;;;;;;10.68;9.60;;;;;;;4.80;60.70;94657.38;5078479;28;20260;-65
2021/12/25 05:04:21;;;;;;;12.07;10.85;;;;;;;4.81;60.52;94640.66;5078352;28;20189;-65
2021/12/25 05:06:49;;;;;;;13.70;11.15;;;;;;;4.76;60.94;94657.22;5079108;28;20187;-65
2021/12/25 05:09:16;;;;;;;11.25;9.75;;;;;;;4.72;60.87;94653.53;5077816;28;20634;-65
2021/12/25 05:11:43;;;;;;;12.18;10.98;;;;;;;4.75;60.71;94665.72;5078765;28;20200;-65
2021/12/25 05:14:10;;;;;;;11.02;10.02;;;;;;;4.79;60.71;94666.69;5078753;28;20193;-65
2021/12/25 05:16:37;;;;;;;9.80;9.00;;;;;;;4.81;60.55;94676.16;5078654;28;20200;-65
2021/12/25 05:19:04;;;;;;;9.38;8.48;;;;;;;4.76;60.67;94672.81;5078458;28;20227;-65
2021/12/25 05:21:31;;;;;;;8.95;8.15;;;;;;;4.81;60.61;94684.38;5077417;28;20197;-65
2021/12/25 05:24:00;;;;;;;9.40;8.40;;;;;;;4.83;60.37;94676.66;5078217;28;20616;-65
2021/12/25 05:26:27;;;;;;;9.43;8.63;;;;;;;4.83;60.67;94671.19;5077462;28;20331;-65
2021/12/25 05:28:59;;;;;;;9.50;8.50;;;;;;;4.88;60.36;94672.13;5078414;28;20196;-65
2021/12/25 05:31:27;;;;;;;9.68;8.77;;;;;;;4.90;60.43;94673.44;5078122;28;20573;-65
2021/12/25 05:33:54;;;;;;;10.10;9.15;;;;;;;4.91;60.00;94685.94;5078341;28;20189;-65
2021/12/25 05:36:21;;;;;;;9.98;9.07;;;;;;;4.91;60.58;94666.81;5077611;28;20197;-65
2021/12/25 05:38:48;;;;;;;9.32;8.52;;;;;;;4.91;60.49;94666.03;5078088;28;20213;-65
2021/12/25 05:41:16;;;;;;;10.63;9.52;;;;;;;4.97;60.43;94670.16;5078189;28;20259;-65
2021/12/25 05:43:43;;;;;;;9.15;8.35;;;;;;;5.00;60.48;94672.25;5078156;28;20192;-65
2021/12/25 05:46:10;;;;;;;10.93;8.45;;;;;;;5.00;60.28;94683.19;5077810;28;20626;-65
2021/12/25 05:48:37;;;;;;;9.68;8.77;;;;;;;4.96;60.87;94693.97;5076845;28;20594;-65
2021/12/25 05:51:04;;;;;;;9.85;8.95;;;;;;;4.91;60.94;94677.75;5077938;28;20196;-65
2021/12/25 05:53:31;;;;;;;10.13;9.13;;;;;;;4.88;61.06;94683.88;5077351;28;20204;-65
2021/12/25 05:55:58;;;;;;;10.80;9.90;;;;;;;4.85;60.84;94695.44;5077532;28;20197;-65
2021/12/25 05:58:26;;;;;;;9.75;8.93;;;;;;;4.86;61.17;94707.19;5077861;28;20200;-65
2021/12/25 06:00:53;;;;;;;9.88;8.95;;;;;;;4.83;61.53;94703.97;5077561;28;20190;-65
2021/12/25 06:03:20;;;;;;;9.30;8.50;;;;;;;4.84;61.40;94702.03;5077829;28;20189;-65
2021/12/25 06:05:47;;;;;;;9.98;9.07;;;;;;;4.83;61.48;94706.72;5077498;28;20190;-65
2021/12/25 06:08:14;;;;;;;9.30;8.10;;;;;;;4.82;61.51;94707.03;5077436;28;20192;-65
2021/12/25 06:10:41;;;;;;;10.27;9.27;;;;;;;4.85;61.15;94711.84;5076513;28;20208;-65
2021/12/25 06:13:11;;;;;;;10.02;9.10;;;;;;;4.83;61.05;94703.97;5077596;28;20185;-65
2021/12/25 06:15:39;;;;;;;9.97;9.07;;;;;;;4.85;61.26;94694.66;5077589;28;20227;-65
2021/12/25 06:18:06;;;;;;;9.65;8.77;;;;;;;4.94;61.51;94712.63;5076585;28;20649;-65
2021/12/25 06:20:33;;;;;;;12.10;8.88;;;;;;;4.98;60.99;94723.72;5077181;28;20219;-65
2021/12/25 06:23:00;;;;;;;9.30;8.40;;;;;;;4.99;60.54;94723.38;5077197;28;20483;-65
2021/12/25 06:25:27;;;;;;;9.07;8.18;;;;;;;4.99;60.54;94715.19;5077010;28;20247;-65
2021/12/25 06:27:54;;;;;;;9.00;8.13;;;;;;;5.02;60.48;94702.81;5076561;28;20193;-65
2021/12/25 06:30:21;;;;;;;9.90;8.93;;;;;;;5.03;60.72;94701.66;5077659;28;20203;-65
2021/12/25 06:32:49;;;;;;;10.60;9.50;;;;;;;5.02;60.70;94711.00;5077425;28;20195;-65
2021/12/25 06:35:16;;;;;;;10.73;9.82;;;;;;;5.06;60.53;94711.94;5077273;28;20395;-65
2021/12/25 06:37:46;;;;;;;10.73;9.75;;;;;;;5.03;60.61;94709.88;5076639;28;20213;-65
2021/12/25 06:40:17;;;;;;;9.70;8.75;;;;;;;5.05;60.76;94713.09;5076830;28;20527;-65
2021/12/25 06:42:44;;;;;;;9.80;8.90;;;;;;;5.05;60.78;94713.88;5076794;28;20181;-65
2021/12/25 06:45:11;;;;;;;11.18;10.15;;;;;;;5.10;60.62;94721.09;5077007;28;20189;-65
2021/12/25 06:47:39;;;;;;;12.13;10.07;;;;;;;5.13;61.10;94717.72;5077066;28;20193;-65
2021/12/25 06:50:08;;;;;;;10.98;9.88;;;;;;;5.12;61.16;94720.75;5076124;28;20203;-65
2021/12/25 06:52:35;;;;;;;10.98;10.05;;;;;;;5.07;61.84;94719.81;5076958;28;20207;-65
2021/12/25 06:55:02;;;;;;;10.52;9.50;;;;;;;5.02;61.78;94716.47;5076539;28;20200;-65
2021/12/25 06:57:29;;;;;;;11.02;9.95;;;;;;;4.97;61.94;94722.09;5075457;28;20195;-65
2021/12/25 06:59:56;;;;;;;12.02;10.45;;;;;;;4.97;62.03;94733.81;5076784;28;20195;-65
2021/12/25 07:02:23;;;;;;;15.68;14.18;;;;;;;5.00;61.47;94719.50;5075771;28;20205;-65
2021/12/25 07:04:49;;;;;;;17.13;15.43;;;;;;;5.05;62.00;94734.97;5075909;28;20291;-65
2021/12/25 07:07:18;;;;;;;17.52;15.65;;;;;;;5.03;62.06;94742.66;5075736;28;20201;-65
2021/12/25 07:09:45;;;;;;;16.52;14.93;;;;;;;5.05;61.75;94735.75;5076541;28;20200;-65
2021/12/25 07:12:11;;;;;;;18.25;16.35;;;;;;;5.08;61.71;94739.75;5076507;28;20185;-65
2021/12/25 07:14:38;;;;;;;17.88;15.98;;;;;;;5.06;61.81;94747.50;5075648;28;20292;-65
2021/12/25 07:17:05;;;;;;;21.40;18.83;;;;;;;5.10;62.28;94744.91;5076441;28;20184;-65
2021/12/25 07:19:32;;;;;;;31.45;26.65;;;;;;;5.13;61.56;94739.59;5075239;28;20209;-65
2021/12/25 07:21:58;;;;;;;38.03;34.20;;;;;;;5.15;62.35;94742.78;5076259;28;20189;-65
2021/12/25 07:24:27;;;;;;;62.25;55.83;;;;;;;5.18;61.81;94733.94;5075154;28;20197;-65
2021/12/25 07:26:53;;;;;;;57.90;51.78;;;;;;;5.25;61.82;94750.63;5076004;28;20196;-65
2021/12/25 07:29:20;;;;;;;54.90;49.20;;;;;;;5.30;61.48;94750.47;5075116;28;20617;-65
2021/12/25 07:31:49;;;;;;;48.72;43.92;;;;;;;5.33;61.44;94738.06;5075698;28;20616;-65
2021/12/25 07:34:16;;;;;;;44.20;39.63;;;;;;;5.41;61.21;94744.63;5075717;28;20605;-65
2021/12/25 07:36:42;;;;;;;39.47;35.47;;;;;;;5.49;60.56;94754.75;5075941;28;20190;-65
2021/12/25 07:39:09;;;;;;;39.78;35.60;;;;;;;5.51;60.91;94747.00;5074907;28;20217;-65
2021/12/25 07:41:37;;;;;;;40.33;36.25;;;;;;;5.54;60.97;94751.81;5075918;28;20208;-65
2021/12/25 07:44:05;;;;;;;33.85;30.45;;;;;;;5.54;60.69;94754.56;5075859;28;20192;-65
2021/12/25 07:46:32;;;;;;;26.10;23.55;;;;;;;5.53;60.22;94758.44;5075800;28;20185;-65
2021/12/25 07:48:59;;;;;;;30.83;27.88;;;;;;;5.54;60.49;94749.88;5074775;28;20204;-65
2021/12/25 07:51:26;;;;;;;27.17;24.52;;;;;;;5.51;60.05;94768.88;5074506;28;20192;-65
2021/12/25 07:53:53;;;;;;;26.83;24.27;;;;;;;5.54;60.32;94762.75;5076846;28;20268;-65
2021/12/25 07:56:24;;;;;;;27.48;24.67;;;;;;;5.54;60.39;94763.56;5075962;28;20506;-65
2021/12/25 07:58:53;;;;;;;38.45;34.65;;;;;;;5.57;60.38;94744.91;5075667;28;20212;-65
2021/12/25 08:01:20;;;;;;;53.08;47.67;;;;;;;5.63;60.77;94765.44;5076009;28;20185;-65
2021/12/25 08:03:47;;;;;;;43.85;39.45;;;;;;;5.64;60.91;94769.81;5074786;28;20250;-65
2021/12/25 08:06:13;;;;;;;40.15;36.05;;;;;;;5.69;60.13;94764.16;5076144;28;20181;-65
2021/12/25 08:08:40;;;;;;;39.03;34.85;;;;;;;5.73;60.24;94765.09;5075429;28;20181;-65
2021/12/25 08:11:07;;;;;;;40.03;36.00;;;;;;;5.90;60.25;94762.25;5074527;28;20205;-65
2021/12/25 08:13:34;;;;;;;55.08;48.58;;;;;;;6.08;59.96;94773.94;5074522;28;20545;-65
2021/12/25 08:16:02;;;;;;;49.38;44.08;;;;;;;6.20;59.20;94763.06;5075349;28;20190;-65
2021/12/25 08:18:31;;;;;;;53.53;47.90;;;;;;;6.35;59.13;94777.31;5074657;28;20569;-65
2021/12/25 08:20:59;;;;;;;49.78;44.40;;;;;;;6.56;58.50;94752.66;5075281;28;20193;-65
2021/12/25 08:23:26;;;;;;;40.42;36.22;;;;;;;6.73;58.46;94753.31;5075354;28;20185;-65
2021/12/25 08:25:53;;;;;;;20.73;18.63;;;;;;;6.89;57.28;94744.47;5074840;28;20244;-65
2021/12/25 08:28:19;;;;;;;14.88;13.25;;;;;;;6.96;56.83;94751.00;5074427;28;20189;-65
2021/12/25 08:30:46;;;;;;;14.07;12.70;;;;;;;7.12;57.42;94762.16;5074429;28;20205;-65
2021/12/25 08:33:14;;;;;;;14.80;13.23;;;;;;;7.21;56.75;94759.31;5074464;28;20511;-65
2021/12/25 08:35:41;;;;;;;12.38;11.18;;;;;;;7.29;56.53;94766.66;5075174;28;20196;-65
2021/12/25 08:38:11;;;;;;;12.18;11.07;;;;;;;7.37;56.50;94765.78;5075086;28;20205;-65
2021/12/25 08:40:38;;;;;;;12.48;11.27;;;;;;;7.44;56.29;94754.22;5075104;28;20196;-65
2021/12/25 08:43:05;;;;;;;10.80;9.70;;;;;;;7.60;56.08;94752.41;5075089;28;20190;-65
2021/12/25 08:45:41;;;;;;;10.27;9.18;;;;;;;7.76;55.60;94746.25;5073814;28;20692;-65
2021/12/25 08:48:12;;;;;;;10.27;9.32;;;;;;;7.81;55.15;94744.09;5074699;28;20258;-65
2021/12/25 08:50:41;;;;;;;8.90;8.10;;;;;;;7.81;55.43;94743.28;5075074;28;20221;-65
2021/12/25 08:53:08;;;;;;;9.45;8.45;;;;;;;7.88;55.01;94738.00;5074827;28;20185;-65
2021/12/25 08:55:35;;;;;;;9.98;8.98;;;;;;;7.87;54.80;94731.72;5074013;28;20195;-65
2021/12/25 08:58:02;;;;;;;9.73;8.82;;;;;;;7.88;54.30;94732.50;5074688;28;20186;-65
2021/12/25 09:00:29;;;;;;;9.55;8.63;;;;;;;7.93;54.50;94741.34;5074975;28;20219;-65
2021/12/25 09:02:56;;;;;;;8.80;8.00;;;;;;;8.03;54.53;94734.59;5074625;28;20180;-65
2021/12/25 09:05:24;;;;;;;9.25;8.35;;;;;;;8.14;54.33;94726.69;5074575;28;20190;-65
2021/12/25 09:07:52;;;;;;;8.55;7.80;;;;;;;8.36;53.62;94728.13;5074850;28;20260;-65
2021/12/25 09:10:19;;;;;;;8.88;8.07;;;;;;;8.39;52.96;94721.97;5074248;28;20201;-65
2021/12/25 09:12:46;;;;;;;9.07;8.27;;;;;;;8.25;52.64;94716.81;5073824;28;20207;-65
2021/12/25 09:15:13;;;;;;;8.63;7.75;;;;;;;8.12;53.38;94704.22;5073850;28;20203;-65
2021/12/25 09:17:40;;;;;;;9.30;8.18;;;;;;;8.03;53.71;94709.88;5075075;28;20189;-65
2021/12/25 09:20:09;;;;;;;9.23;8.15;;;;;;;8.01;53.69;94717.63;5073948;28;20219;-65
2021/12/25 09:22:36;;;;;;;9.20;8.40;;;;;;;7.94;53.68;94704.47;5073782;28;20201;-65
2021/12/25 09:25:05;;;;;;;9.27;8.27;;;;;;;7.87;53.81;94698.75;5074340;28;20240;-65
2021/12/25 09:27:31;;;;;;;10.40;9.35;;;;;;;7.93;53.78;94707.59;5073737;28;20207;-65
2021/12/25 09:29:58;;;;;;;10.23;8.82;;;;;;;7.92;53.77;94704.03;5074660;28;20201;-65
2021/12/25 09:32:25;;;;;;;9.57;8.68;;;;;;;7.89;54.11;94699.22;5074297;28;20173;-65
2021/12/25 09:34:52;;;;;;;9.30;8.50;;;;;;;7.86;54.05;94694.44;5074530;28;20182;-65
2021/12/25 09:37:20;;;;;;;9.27;8.48;;;;;;;7.81;54.59;94700.16;5074499;28;20199;-65
2021/12/25 09:39:47;;;;;;;10.23;9.23;;;;;;;7.84;54.36;94685.75;5074634;28;20292;-65
2021/12/25 09:42:15;;;;;;;9.25;8.35;;;;;;;7.85;54.34;94676.34;5073922;28;20197;-65
2021/12/25 09:44:42;;;;;;;9.13;8.23;;;;;;;7.86;54.19;94679.91;5074589;28;20190;-65
2021/12/25 09:47:08;;;;;;;9.50;8.60;;;;;;;7.91;54.01;94676.91;5076879;28;20617;-65
2021/12/25 09:49:35;;;;;;;9.60;8.60;;;;;;;7.94;54.06;94673.47;5078081;28;20186;-65
2021/12/25 09:52:03;;;;;;;10.45;8.77;;;;;;;7.92;54.47;94662.84;5076988;28;20233;-65
2021/12/25 09:54:30;;;;;;;10.05;9.05;;;;;;;7.95;54.50;94655.84;5077276;28;20609;-65
2021/12/25 09:56:58;;;;;;;11.35;10.25;;;;;;;7.99;54.48;94661.44;5078051;28;20193;-65
2021/12/25 09:59:27;;;;;;;9.80;8.80;;;;;;;8.02;54.64;94660.75;5077579;28;20223;-65
2021/12/25 10:01:55;;;;;;;9.32;8.35;;;;;;;8.01;53.85;94665.44;5077178;28;20200;-65
2021/12/25 10:04:37;;;;;;;9.23;8.32;;;;;;;7.98;54.29;94657.91;5077177;28;20209;-65
2021/12/25 10:07:16;;;;;;;9.15;8.32;;;;;;;7.97;54.61;94672.78;5077427;28;20479;-65
2021/12/25 10:09:43;;;;;;;9.85;8.00;;;;;;;7.92;54.24;94656.56;5077021;28;20199;-65
2021/12/25 10:12:13;;;;;;;10.20;9.20;;;;;;;7.92;54.51;94649.13;5076806;28;20204;-65
2021/12/25 10:14:43;;;;;;;11.00;9.40;;;;;;;7.95;54.30;94656.66;5076415;28;20201;-65
2021/12/25 10:17:15;;;;;;;10.52;9.43;;;;;;;8.06;54.63;94642.44;5077534;28;20259;-65
2021/12/25 10:19:42;;;;;;;9.48;8.52;;;;;;;8.17;53.98;94654.56;5077495;28;20216;-65
2021/12/25 10:22:12;;;;;;;12.77;8.93;;;;;;;8.25;54.21;94644.59;5077493;28;20217;-65
2021/12/25 10:24:49;;;;;;;9.20;8.10;;;;;;;8.31;53.36;94646.72;5077057;28;20192;-65
2021/12/25 10:27:19;;;;;;;9.73;8.63;;;;;;;8.41;53.25;94635.25;5076496;28;20196;-65
2021/12/25 10:29:48;;;;;;;9.48;8.50;;;;;;;8.51;53.27;94627.69;5076396;28;20193;-65
2021/12/25 10:32:18;;;;;;;9.20;8.15;;;;;;;8.53;53.35;94623.41;5076564;28;20225;-65
2021/12/25 10:34:45;;;;;;;10.63;9.43;;;;;;;8.54;53.06;94632.47;5076428;28;20200;-65
2021/12/25 10:37:14;;;;;;;9.85;8.85;;;;;;;8.53;52.57;94623.41;5076175;28;20207;-65
2021/12/25 10:39:41;;;;;;;9.88;8.90;;;;;;;8.58;52.75;94622.38;5075888;28;20224;-65
2021/12/25 10:42:12;;;;;;;9.93;9.02;;;;;;;8.59;53.02;94626.72;5076329;28;20201;-65
2021/12/25 10:44:41;;;;;;;9.77;8.80;;;;;;;8.66;52.80;94624.16;5077136;28;20255;-65
2021/12/25 10:47:11;;;;;;;12.23;9.30;;;;;;;8.75;52.99;94624.00;5077630;28;20207;-65
2021/12/25 10:49:41;;;;;;;10.07;9.02;;;;;;;8.86;52.55;94625.06;5076672;28;20281;-65
2021/12/25 10:52:15;;;;;;;12.07;10.60;;;;;;;8.86;52.36;94616.81;5076722;28;20243;-65
2021/12/25 10:54:44;;;;;;;12.25;11.05;;;;;;;8.86;52.59;94608.56;5075882;28;20209;-65
2021/12/25 10:57:11;;;;;;;11.80;10.65;;;;;;;8.94;52.67;94615.88;5076204;28;20199;-65
2021/12/25 10:59:46;;;;;;;12.32;11.00;;;;;;;8.99;52.01;94609.31;5075834;28;20219;-65
2021/12/25 11:02:29;;;;;;;11.82;10.70;;;;;;;9.00;52.10;94597.16;5076365;28;20245;-65
2021/12/25 11:04:56;;;;;;;11.65;10.65;;;;;;;8.99;51.39;94593.59;5076727;28;20181;-65
2021/12/25 11:07:23;;;;;;;11.95;10.77;;;;;;;9.02;51.88;94598.41;5075641;28;20193;-65
2021/12/25 11:10:07;;;;;;;10.98;9.88;;;;;;;9.02;52.06;94559.88;5076407;28;20178;-65
2021/12/25 11:12:35;;;;;;;14.35;11.43;;;;;;;9.01;51.59;94585.00;5076353;28;20191;-65
2021/12/25 11:15:11;;;;;;;12.93;11.02;;;;;;;9.08;52.38;94572.22;5075397;28;20211;-65
2021/12/25 11:17:42;;;;;;;11.90;10.70;;;;;;;9.48;51.00;94567.66;5075754;28;20196;-65
2021/12/25 11:20:17;;;;;;;12.57;10.55;;;;;;;10.06;50.93;94557.53;5075751;28;20193;-65
2021/12/25 11:22:50;;;;;;;12.20;10.57;;;;;;;10.80;49.33;94548.34;5076105;28;20193;-65
2021/12/25 11:25:18;;;;;;;12.45;11.10;;;;;;;11.40;47.15;94556.88;5075734;28;20233;-65
2021/12/25 11:27:45;;;;;;;11.73;10.55;;;;;;;11.90;46.76;94534.72;5075847;28;20284;-65
2021/12/25 11:30:12;;;;;;;12.02;10.93;;;;;;;12.39;45.30;94547.59;5075115;28;20205;-65
2021/12/25 11:32:41;;;;;;;11.95;10.85;;;;;;;12.97;44.11;94547.03;5075876;28;20196;-65
2021/12/25 11:35:08;;;;;;;12.30;11.10;;;;;;;13.41;42.41;94547.03;5075001;28;20197;-65
2021/12/25 11:37:36;;;;;;;14.18;12.88;;;;;;;13.71;40.83;94538.53;5074636;28;20193;-65
2021/12/25 11:40:04;;;;;;;15.18;13.63;;;;;;;14.10;40.06;94542.75;5075207;28;20216;-65
2021/12/25 11:42:31;;;;;;;15.20;13.57;;;;;;;14.53;38.82;94526.31;5075287;28;20199;-65
2021/12/25 11:45:12;;;;;;;16.30;14.60;;;;;;;15.12;38.33;94524.06;5074921;28;20197;-65
2021/12/25 11:47:42;;;;;;;16.90;15.10;;;;;;;15.73;37.08;94519.31;5075736;28;20207;-65
2021/12/25 11:50:11;;;;;;;19.52;17.52;;;;;;;15.45;37.35;94534.00;5074738;28;20197;-65
2021/12/25 11:52:44;;;;;;;18.33;16.63;;;;;;;14.66;38.89;94528.31;5075765;28;20189;-64
2021/12/25 11:55:35;;;;;;;18.15;16.25;;;;;;;14.30;39.61;94532.13;5075459;28;20188;-64
2021/12/25 11:58:17;;;;;;;19.58;17.48;;;;;;;13.76;40.68;94525.50;5074856;28;20201;-64
2021/12/25 12:00:45;;;;;;;18.52;16.65;;;;;;;13.16;41.61;94534.94;5075500;28;20205;-64
2021/12/25 12:03:38;;;;;;;21.02;16.95;;;;;;;12.49;43.41;94530.28;5075517;28;20196;-65
2021/12/25 12:06:06;;;;;;;18.77;16.85;;;;;;;11.98;44.62;94525.34;5075556;28;20587;-65
2021/12/25 12:09:07;;;;;;;17.88;16.08;;;;;;;11.57;45.75;94527.91;5073755;28;20205;-65
2021/12/25 12:11:34;;;;;;;18.15;16.35;;;;;;;11.29;46.29;94531.84;5075528;28;20185;-65
2021/12/25 12:14:19;;;;;;;19.45;17.20;;;;;;;11.14;47.01;94523.69;5074583;28;20196;-65
2021/12/25 12:16:48;;;;;;;18.30;16.45;;;;;;;11.01;47.72;94529.41;5075468;28;20195;-65
2021/12/25 12:19:45;;;;;;;18.80;16.90;;;;;;;10.89;47.67;94535.09;5074424;28;20208;-65
2021/12/25 12:22:48;;;;;;;19.15;15.90;;;;;;;10.79;47.70;94535.72;5075560;28;20181;-65
2021/12/25 12:25:23;;;;;;;19.73;15.75;;;;;;;10.73;48.06;94546.25;5075002;28;20236;-65